sensor_id;sensor_type;location;lat;lon;timestamp;P1;durP1;ratioP1;P2;durP2;ratioP2
29026;SDS011;16120;48.608;9.092;2023-04-26T00:03:20;78.47;;;5.80;;
29026;SDS011;16120;48.608;9.092;2023-04-26T00:07:15;82.43;;;6.70;;
29026;SDS011;16120;48.608;9.092;2023-04-26T00:11:11;78.60;;;6.03;;
29026;SDS011;16120;48.608;9.092;2023-04-26T00:15:07;77.83;;;5.70;;
29026;SDS011;16120;48.608;9.092;2023-04-26T00:19:02;78.10;;;6.50;;
29026;SDS011;16120;48.608;9.092;2023-04-26T00:22:57;80.47;;;6.57;;
29026;SDS011;16120;48.608;9.092;2023-04-26T00:26:54;80.90;;;6.00;;
29026;SDS011;16120;48.608;9.092;2023-04-26T00:30:49;80.10;;;5.97;;
29026;SDS011;16120;48.608;9.092;2023-04-26T00:34:48;79.43;;;5.43;;
29026;SDS011;16120;48.608;9.092;2023-04-26T00:38:43;78.33;;;5.77;;
29026;SDS011;16120;48.608;9.092;2023-04-26T00:42:39;78.37;;;5.57;;
29026;SDS011;16120;48.608;9.092;2023-04-26T00:46:35;77.57;;;5.67;;
29026;SDS011;16120;48.608;9.092;2023-04-26T00:50:30;79.20;;;6.00;;
29026;SDS011;16120;48.608;9.092;2023-04-26T00:54:25;78.37;;;5.80;;
29026;SDS011;16120;48.608;9.092;2023-04-26T00:58:22;82.53;;;6.00;;
29026;SDS011;16120;48.608;9.092;2023-04-26T01:02:17;78.37;;;5.73;;
29026;SDS011;16120;48.608;9.092;2023-04-26T01:06:12;78.97;;;6.17;;
29026;SDS011;16120;48.608;9.092;2023-04-26T01:10:08;78.60;;;5.60;;
29026;SDS011;16120;48.608;9.092;2023-04-26T01:14:05;85.03;;;7.03;;
29026;SDS011;16120;48.608;9.092;2023-04-26T01:18:00;80.97;;;6.57;;
29026;SDS011;16120;48.608;9.092;2023-04-26T01:21:55;78.33;;;5.97;;
29026;SDS011;16120;48.608;9.092;2023-04-26T01:25:52;79.03;;;5.90;;
29026;SDS011;16120;48.608;9.092;2023-04-26T01:29:47;78.60;;;5.83;;
29026;SDS011;16120;48.608;9.092;2023-04-26T01:33:42;80.90;;;5.93;;
29026;SDS011;16120;48.608;9.092;2023-04-26T01:37:38;81.13;;;6.00;;
29026;SDS011;16120;48.608;9.092;2023-04-26T01:41:34;80.13;;;5.85;;
29026;SDS011;16120;48.608;9.092;2023-04-26T01:45:29;84.67;;;7.60;;
29026;SDS011;16120;48.608;9.092;2023-04-26T01:49:24;81.77;;;8.07;;
29026;SDS011;16120;48.608;9.092;2023-04-26T01:53:20;86.97;;;7.87;;
29026;SDS011;16120;48.608;9.092;2023-04-26T01:57:16;81.40;;;7.10;;
29026;SDS011;16120;48.608;9.092;2023-04-26T02:01:11;80.20;;;6.13;;
29026;SDS011;16120;48.608;9.092;2023-04-26T02:05:08;79.38;;;6.00;;
29026;SDS011;16120;48.608;9.092;2023-04-26T02:09:03;83.10;;;6.27;;
29026;SDS011;16120;48.608;9.092;2023-04-26T02:13:00;80.95;;;6.05;;
29026;SDS011;16120;48.608;9.092;2023-04-26T02:16:55;81.83;;;6.73;;
29026;SDS011;16120;48.608;9.092;2023-04-26T02:20:50;81.10;;;6.83;;
29026;SDS011;16120;48.608;9.092;2023-04-26T02:24:45;81.47;;;6.40;;
29026;SDS011;16120;48.608;9.092;2023-04-26T02:28:42;80.67;;;7.53;;
29026;SDS011;16120;48.608;9.092;2023-04-26T02:32:37;84.53;;;7.20;;
29026;SDS011;16120;48.608;9.092;2023-04-26T02:36:32;79.37;;;6.93;;
29026;SDS011;16120;48.608;9.092;2023-04-26T02:40:27;88.47;;;10.37;;
29026;SDS011;16120;48.608;9.092;2023-04-26T02:44:24;93.80;;;11.20;;
29026;SDS011;16120;48.608;9.092;2023-04-26T02:48:19;92.07;;;9.70;;
29026;SDS011;16120;48.608;9.092;2023-04-26T02:52:14;83.57;;;8.30;;
29026;SDS011;16120;48.608;9.092;2023-04-26T02:56:09;82.30;;;7.30;;
29026;SDS011;16120;48.608;9.092;2023-04-26T03:00:07;82.60;;;7.37;;
29026;SDS011;16120;48.608;9.092;2023-04-26T03:04:02;81.17;;;7.30;;
29026;SDS011;16120;48.608;9.092;2023-04-26T03:07:57;88.50;;;7.60;;
29026;SDS011;16120;48.608;9.092;2023-04-26T03:11:53;81.97;;;6.93;;
29026;SDS011;16120;48.608;9.092;2023-04-26T03:15:49;81.43;;;7.30;;
29026;SDS011;16120;48.608;9.092;2023-04-26T03:19:44;81.47;;;7.30;;
29026;SDS011;16120;48.608;9.092;2023-04-26T03:23:40;80.07;;;6.85;;
29026;SDS011;16120;48.608;9.092;2023-04-26T03:27:35;82.18;;;6.90;;
29026;SDS011;16120;48.608;9.092;2023-04-26T03:31:31;80.53;;;7.50;;
29026;SDS011;16120;48.608;9.092;2023-04-26T03:35:27;83.40;;;7.73;;
29026;SDS011;16120;48.608;9.092;2023-04-26T03:39:22;83.80;;;7.50;;
29026;SDS011;16120;48.608;9.092;2023-04-26T03:43:17;79.57;;;6.53;;
29026;SDS011;16120;48.608;9.092;2023-04-26T03:47:13;81.30;;;7.10;;
29026;SDS011;16120;48.608;9.092;2023-04-26T03:51:09;82.30;;;7.30;;
29026;SDS011;16120;48.608;9.092;2023-04-26T03:55:04;80.80;;;6.83;;
29026;SDS011;16120;48.608;9.092;2023-04-26T03:59:00;82.13;;;6.97;;
29026;SDS011;16120;48.608;9.092;2023-04-26T04:02:56;80.47;;;6.85;;
29026;SDS011;16120;48.608;9.092;2023-04-26T04:06:52;82.77;;;8.07;;
29026;SDS011;16120;48.608;9.092;2023-04-26T04:10:47;80.60;;;7.00;;
29026;SDS011;16120;48.608;9.092;2023-04-26T04:14:42;81.17;;;6.70;;
29026;SDS011;16120;48.608;9.092;2023-04-26T04:18:38;84.93;;;8.30;;
29026;SDS011;16120;48.608;9.092;2023-04-26T04:22:34;84.30;;;7.80;;
29026;SDS011;16120;48.608;9.092;2023-04-26T04:26:29;83.73;;;7.60;;
29026;SDS011;16120;48.608;9.092;2023-04-26T04:30:24;83.35;;;7.90;;
29026;SDS011;16120;48.608;9.092;2023-04-26T04:34:21;80.57;;;6.80;;
29026;SDS011;16120;48.608;9.092;2023-04-26T04:38:16;78.93;;;6.70;;
29026;SDS011;16120;48.608;9.092;2023-04-26T04:42:11;83.53;;;7.15;;
29026;SDS011;16120;48.608;9.092;2023-04-26T04:46:06;81.77;;;7.30;;
29026;SDS011;16120;48.608;9.092;2023-04-26T04:50:03;89.00;;;8.37;;
29026;SDS011;16120;48.608;9.092;2023-04-26T04:53:59;81.70;;;8.30;;
29026;SDS011;16120;48.608;9.092;2023-04-26T04:58:02;83.17;;;7.60;;
29026;SDS011;16120;48.608;9.092;2023-04-26T05:01:58;82.03;;;7.60;;
29026;SDS011;16120;48.608;9.092;2023-04-26T05:05:54;91.10;;;8.23;;
29026;SDS011;16120;48.608;9.092;2023-04-26T05:09:50;80.77;;;7.40;;
29026;SDS011;16120;48.608;9.092;2023-04-26T05:13:45;85.60;;;7.72;;
29026;SDS011;16120;48.608;9.092;2023-04-26T05:17:40;82.90;;;7.90;;
29026;SDS011;16120;48.608;9.092;2023-04-26T05:21:37;87.17;;;8.33;;
29026;SDS011;16120;48.608;9.092;2023-04-26T05:25:35;83.93;;;8.70;;
29026;SDS011;16120;48.608;9.092;2023-04-26T05:29:30;93.80;;;9.27;;
29026;SDS011;16120;48.608;9.092;2023-04-26T05:33:25;89.85;;;10.82;;
29026;SDS011;16120;48.608;9.092;2023-04-26T05:37:22;87.70;;;10.33;;
29026;SDS011;16120;48.608;9.092;2023-04-26T05:41:17;90.50;;;11.50;;
29026;SDS011;16120;48.608;9.092;2023-04-26T05:45:12;89.83;;;10.60;;
29026;SDS011;16120;48.608;9.092;2023-04-26T05:49:07;89.17;;;10.53;;
29026;SDS011;16120;48.608;9.092;2023-04-26T05:53:04;87.33;;;10.30;;
29026;SDS011;16120;48.608;9.092;2023-04-26T05:56:59;92.37;;;11.60;;
29026;SDS011;16120;48.608;9.092;2023-04-26T06:00:54;95.87;;;12.07;;
29026;SDS011;16120;48.608;9.092;2023-04-26T06:04:50;87.13;;;9.87;;
29026;SDS011;16120;48.608;9.092;2023-04-26T06:08:46;92.83;;;12.53;;
29026;SDS011;16120;48.608;9.092;2023-04-26T06:12:41;89.90;;;11.17;;
29026;SDS011;16120;48.608;9.092;2023-04-26T06:16:37;91.10;;;11.20;;
29026;SDS011;16120;48.608;9.092;2023-04-26T06:20:33;93.83;;;12.80;;
29026;SDS011;16120;48.608;9.092;2023-04-26T06:24:29;88.20;;;12.07;;
29026;SDS011;16120;48.608;9.092;2023-04-26T06:28:25;89.67;;;12.37;;
29026;SDS011;16120;48.608;9.092;2023-04-26T06:32:20;88.50;;;11.70;;
29026;SDS011;16120;48.608;9.092;2023-04-26T06:36:15;90.37;;;11.40;;
29026;SDS011;16120;48.608;9.092;2023-04-26T06:40:12;89.87;;;11.60;;
29026;SDS011;16120;48.608;9.092;2023-04-26T06:44:07;89.40;;;11.17;;
29026;SDS011;16120;48.608;9.092;2023-04-26T06:48:02;87.93;;;11.40;;
29026;SDS011;16120;48.608;9.092;2023-04-26T06:51:58;89.23;;;11.60;;
29026;SDS011;16120;48.608;9.092;2023-04-26T06:55:54;91.50;;;10.90;;
29026;SDS011;16120;48.608;9.092;2023-04-26T06:59:49;93.77;;;12.60;;
29026;SDS011;16120;48.608;9.092;2023-04-26T07:03:45;83.07;;;9.83;;
29026;SDS011;16120;48.608;9.092;2023-04-26T07:07:40;87.33;;;10.00;;
29026;SDS011;16120;48.608;9.092;2023-04-26T07:11:37;83.05;;;9.57;;
29026;SDS011;16120;48.608;9.092;2023-04-26T07:15:32;84.67;;;9.77;;
29026;SDS011;16120;48.608;9.092;2023-04-26T07:19:27;83.63;;;9.30;;
29026;SDS011;16120;48.608;9.092;2023-04-26T07:23:22;82.50;;;8.23;;
29026;SDS011;16120;48.608;9.092;2023-04-26T07:27:19;81.83;;;6.80;;
29026;SDS011;16120;48.608;9.092;2023-04-26T07:31:14;82.60;;;6.70;;
29026;SDS011;16120;48.608;9.092;2023-04-26T07:35:10;80.37;;;8.23;;
29026;SDS011;16120;48.608;9.092;2023-04-26T07:39:05;76.73;;;5.67;;
29026;SDS011;16120;48.608;9.092;2023-04-26T07:43:02;81.73;;;6.10;;
29026;SDS011;16120;48.608;9.092;2023-04-26T07:46:57;93.83;;;6.87;;
29026;SDS011;16120;48.608;9.092;2023-04-26T07:50:52;79.37;;;5.83;;
29026;SDS011;16120;48.608;9.092;2023-04-26T07:54:47;85.07;;;6.30;;
29026;SDS011;16120;48.608;9.092;2023-04-26T07:58:44;88.47;;;7.57;;
29026;SDS011;16120;48.608;9.092;2023-04-26T08:02:39;80.27;;;6.70;;
29026;SDS011;16120;48.608;9.092;2023-04-26T08:06:34;80.87;;;7.07;;
29026;SDS011;16120;48.608;9.092;2023-04-26T08:10:30;82.75;;;7.43;;
29026;SDS011;16120;48.608;9.092;2023-04-26T08:14:26;86.47;;;7.00;;
29026;SDS011;16120;48.608;9.092;2023-04-26T08:18:21;88.60;;;7.20;;
29026;SDS011;16120;48.608;9.092;2023-04-26T08:22:16;80.70;;;7.20;;
29026;SDS011;16120;48.608;9.092;2023-04-26T08:26:12;87.93;;;7.80;;
29026;SDS011;16120;48.608;9.092;2023-04-26T08:30:09;81.70;;;6.73;;
29026;SDS011;16120;48.608;9.092;2023-04-26T08:34:04;81.57;;;7.00;;
29026;SDS011;16120;48.608;9.092;2023-04-26T08:37:59;81.17;;;7.10;;
29026;SDS011;16120;48.608;9.092;2023-04-26T08:41:55;80.85;;;7.22;;
29026;SDS011;16120;48.608;9.092;2023-04-26T08:45:55;81.37;;;6.63;;
29026;SDS011;16120;48.608;9.092;2023-04-26T08:49:53;82.93;;;7.50;;
29026;SDS011;16120;48.608;9.092;2023-04-26T08:53:48;80.10;;;6.70;;
29026;SDS011;16120;48.608;9.092;2023-04-26T08:57:45;83.03;;;6.97;;
29026;SDS011;16120;48.608;9.092;2023-04-26T09:01:42;82.80;;;7.40;;
29026;SDS011;16120;48.608;9.092;2023-04-26T09:05:38;80.37;;;7.10;;
29026;SDS011;16120;48.608;9.092;2023-04-26T09:09:34;82.80;;;6.30;;
29026;SDS011;16120;48.608;9.092;2023-04-26T09:13:30;80.93;;;7.03;;
29026;SDS011;16120;48.608;9.092;2023-04-26T09:17:30;80.67;;;7.20;;
29026;SDS011;16120;48.608;9.092;2023-04-26T09:21:25;82.57;;;7.10;;
29026;SDS011;16120;48.608;9.092;2023-04-26T09:25:25;80.60;;;6.43;;
29026;SDS011;16120;48.608;9.092;2023-04-26T09:29:21;79.23;;;6.50;;
29026;SDS011;16120;48.608;9.092;2023-04-26T09:33:17;78.07;;;6.03;;
29026;SDS011;16120;48.608;9.092;2023-04-26T09:37:12;79.80;;;6.23;;
29026;SDS011;16120;48.608;9.092;2023-04-26T09:41:08;80.97;;;6.70;;
29026;SDS011;16120;48.608;9.092;2023-04-26T09:45:04;78.27;;;6.50;;
29026;SDS011;16120;48.608;9.092;2023-04-26T09:49:01;78.27;;;6.93;;
29026;SDS011;16120;48.608;9.092;2023-04-26T09:52:56;80.30;;;6.53;;
29026;SDS011;16120;48.608;9.092;2023-04-26T09:56:58;77.43;;;6.00;;
29026;SDS011;16120;48.608;9.092;2023-04-26T10:00:53;79.40;;;6.30;;
29026;SDS011;16120;48.608;9.092;2023-04-26T10:04:50;79.03;;;6.00;;
29026;SDS011;16120;48.608;9.092;2023-04-26T10:08:45;79.00;;;6.47;;
29026;SDS011;16120;48.608;9.092;2023-04-26T10:12:41;81.37;;;7.00;;
29026;SDS011;16120;48.608;9.092;2023-04-26T10:16:36;81.70;;;6.00;;
29026;SDS011;16120;48.608;9.092;2023-04-26T10:20:33;77.97;;;5.83;;
29026;SDS011;16120;48.608;9.092;2023-04-26T10:24:29;78.50;;;6.47;;
29026;SDS011;16120;48.608;9.092;2023-04-26T10:37:09;85.60;;;7.77;;
29026;SDS011;16120;48.608;9.092;2023-04-26T10:45:25;81.07;;;6.50;;
29026;SDS011;16120;48.608;9.092;2023-04-26T10:49:20;78.17;;;6.40;;
29026;SDS011;16120;48.608;9.092;2023-04-26T10:53:17;83.30;;;7.17;;
29026;SDS011;16120;48.608;9.092;2023-04-26T10:57:12;85.13;;;5.70;;
29026;SDS011;16120;48.608;9.092;2023-04-26T11:01:08;76.97;;;5.33;;
29026;SDS011;16120;48.608;9.092;2023-04-26T11:05:04;79.20;;;6.43;;
29026;SDS011;16120;48.608;9.092;2023-04-26T11:09:00;76.73;;;5.80;;
29026;SDS011;16120;48.608;9.092;2023-04-26T11:12:59;77.43;;;5.17;;
29026;SDS011;16120;48.608;9.092;2023-04-26T11:16:55;77.97;;;5.37;;
29026;SDS011;16120;48.608;9.092;2023-04-26T11:20:50;77.07;;;5.90;;
29026;SDS011;16120;48.608;9.092;2023-04-26T11:24:47;88.77;;;17.93;;
29026;SDS011;16120;48.608;9.092;2023-04-26T11:28:42;82.63;;;5.83;;
29026;SDS011;16120;48.608;9.092;2023-04-26T11:32:37;79.43;;;5.97;;
29026;SDS011;16120;48.608;9.092;2023-04-26T11:36:35;78.30;;;5.40;;
29026;SDS011;16120;48.608;9.092;2023-04-26T11:40:32;77.50;;;5.40;;
29026;SDS011;16120;48.608;9.092;2023-04-26T11:44:27;78.30;;;6.00;;
29026;SDS011;16120;48.608;9.092;2023-04-26T11:48:22;79.50;;;6.10;;
29026;SDS011;16120;48.608;9.092;2023-04-26T11:52:18;77.17;;;5.73;;
29026;SDS011;16120;48.608;9.092;2023-04-26T11:56:15;77.27;;;5.97;;
29026;SDS011;16120;48.608;9.092;2023-04-26T12:04:27;79.33;;;6.40;;
29026;SDS011;16120;48.608;9.092;2023-04-26T12:08:23;75.53;;;5.00;;
29026;SDS011;16120;48.608;9.092;2023-04-26T12:12:21;72.80;;;4.37;;
29026;SDS011;16120;48.608;9.092;2023-04-26T12:16:17;77.57;;;4.97;;
29026;SDS011;16120;48.608;9.092;2023-04-26T12:20:12;78.23;;;5.20;;
29026;SDS011;16120;48.608;9.092;2023-04-26T12:24:19;78.77;;;6.07;;
29026;SDS011;16120;48.608;9.092;2023-04-26T12:28:15;82.23;;;6.10;;
29026;SDS011;16120;48.608;9.092;2023-04-26T12:32:11;77.87;;;5.07;;
29026;SDS011;16120;48.608;9.092;2023-04-26T12:36:06;74.67;;;4.80;;
29026;SDS011;16120;48.608;9.092;2023-04-26T12:40:02;79.27;;;5.30;;
29026;SDS011;16120;48.608;9.092;2023-04-26T12:43:59;75.70;;;4.90;;
29026;SDS011;16120;48.608;9.092;2023-04-26T12:47:54;78.10;;;5.50;;
29026;SDS011;16120;48.608;9.092;2023-04-26T12:51:49;74.70;;;4.90;;
29026;SDS011;16120;48.608;9.092;2023-04-26T12:55:44;75.60;;;4.93;;
29026;SDS011;16120;48.608;9.092;2023-04-26T12:59:41;76.45;;;5.30;;
29026;SDS011;16120;48.608;9.092;2023-04-26T13:03:36;77.50;;;5.33;;
29026;SDS011;16120;48.608;9.092;2023-04-26T13:07:32;75.50;;;5.07;;
29026;SDS011;16120;48.608;9.092;2023-04-26T13:11:27;78.50;;;5.77;;
29026;SDS011;16120;48.608;9.092;2023-04-26T13:15:24;77.63;;;6.10;;
29026;SDS011;16120;48.608;9.092;2023-04-26T13:19:19;75.43;;;4.60;;
29026;SDS011;16120;48.608;9.092;2023-04-26T13:23:14;74.10;;;4.63;;
29026;SDS011;16120;48.608;9.092;2023-04-26T13:27:09;75.30;;;5.10;;
29026;SDS011;16120;48.608;9.092;2023-04-26T13:31:06;79.05;;;5.60;;
29026;SDS011;16120;48.608;9.092;2023-04-26T13:35:01;78.87;;;5.67;;
29026;SDS011;16120;48.608;9.092;2023-04-26T13:38:56;75.50;;;5.30;;
29026;SDS011;16120;48.608;9.092;2023-04-26T13:42:52;74.47;;;4.67;;
29026;SDS011;16120;48.608;9.092;2023-04-26T13:46:48;74.10;;;4.60;;
29026;SDS011;16120;48.608;9.092;2023-04-26T13:50:43;75.00;;;4.20;;
29026;SDS011;16120;48.608;9.092;2023-04-26T13:54:39;73.93;;;4.47;;
29026;SDS011;16120;48.608;9.092;2023-04-26T13:58:34;75.97;;;5.00;;
29026;SDS011;16120;48.608;9.092;2023-04-26T14:02:30;74.40;;;4.53;;
29026;SDS011;16120;48.608;9.092;2023-04-26T14:06:25;75.77;;;5.40;;
29026;SDS011;16120;48.608;9.092;2023-04-26T14:10:21;74.07;;;5.03;;
29026;SDS011;16120;48.608;9.092;2023-04-26T14:14:16;75.77;;;5.10;;
29026;SDS011;16120;48.608;9.092;2023-04-26T14:18:12;74.00;;;4.90;;
29026;SDS011;16120;48.608;9.092;2023-04-26T14:22:08;73.87;;;4.87;;
29026;SDS011;16120;48.608;9.092;2023-04-26T14:26:03;74.53;;;4.47;;
29026;SDS011;16120;48.608;9.092;2023-04-26T14:29:58;75.90;;;5.00;;
29026;SDS011;16120;48.608;9.092;2023-04-26T14:33:55;75.90;;;4.77;;
29026;SDS011;16120;48.608;9.092;2023-04-26T14:37:50;74.37;;;4.47;;
29026;SDS011;16120;48.608;9.092;2023-04-26T14:41:45;75.00;;;4.83;;
29026;SDS011;16120;48.608;9.092;2023-04-26T14:45:41;74.90;;;5.10;;
29026;SDS011;16120;48.608;9.092;2023-04-26T14:49:37;75.97;;;4.53;;
29026;SDS011;16120;48.608;9.092;2023-04-26T14:53:33;78.13;;;4.80;;
29026;SDS011;16120;48.608;9.092;2023-04-26T14:57:28;76.77;;;4.90;;
29026;SDS011;16120;48.608;9.092;2023-04-26T15:01:23;74.90;;;4.70;;
29026;SDS011;16120;48.608;9.092;2023-04-26T15:05:19;81.13;;;5.30;;
29026;SDS011;16120;48.608;9.092;2023-04-26T15:09:15;76.00;;;4.60;;
29026;SDS011;16120;48.608;9.092;2023-04-26T15:13:10;73.77;;;4.20;;
29026;SDS011;16120;48.608;9.092;2023-04-26T15:17:05;74.68;;;4.75;;
29026;SDS011;16120;48.608;9.092;2023-04-26T15:21:02;72.82;;;4.38;;
29026;SDS011;16120;48.608;9.092;2023-04-26T15:24:57;73.57;;;4.37;;
29026;SDS011;16120;48.608;9.092;2023-04-26T15:28:52;75.07;;;4.57;;
29026;SDS011;16120;48.608;9.092;2023-04-26T15:32:47;74.07;;;4.10;;
29026;SDS011;16120;48.608;9.092;2023-04-26T15:36:44;73.53;;;4.67;;
29026;SDS011;16120;48.608;9.092;2023-04-26T15:40:39;77.07;;;4.40;;
29026;SDS011;16120;48.608;9.092;2023-04-26T15:44:34;73.47;;;4.10;;
29026;SDS011;16120;48.608;9.092;2023-04-26T15:48:29;76.07;;;4.73;;
29026;SDS011;16120;48.608;9.092;2023-04-26T15:52:26;76.50;;;5.87;;
29026;SDS011;16120;48.608;9.092;2023-04-26T15:56:21;74.37;;;5.17;;
29026;SDS011;16120;48.608;9.092;2023-04-26T16:00:16;75.93;;;5.70;;
29026;SDS011;16120;48.608;9.092;2023-04-26T16:04:12;79.30;;;5.77;;
29026;SDS011;16120;48.608;9.092;2023-04-26T16:08:08;77.87;;;5.80;;
29026;SDS011;16120;48.608;9.092;2023-04-26T16:12:04;77.37;;;5.70;;
29026;SDS011;16120;48.608;9.092;2023-04-26T16:15:59;74.77;;;5.40;;
29026;SDS011;16120;48.608;9.092;2023-04-26T16:19:54;74.17;;;5.30;;
29026;SDS011;16120;48.608;9.092;2023-04-26T16:23:51;75.17;;;5.50;;
29026;SDS011;16120;48.608;9.092;2023-04-26T16:27:46;76.70;;;5.77;;
29026;SDS011;16120;48.608;9.092;2023-04-26T16:31:41;75.47;;;5.33;;
29026;SDS011;16120;48.608;9.092;2023-04-26T16:35:36;75.87;;;5.23;;
29026;SDS011;16120;48.608;9.092;2023-04-26T16:39:33;75.40;;;5.50;;
29026;SDS011;16120;48.608;9.092;2023-04-26T16:43:28;81.23;;;9.60;;
29026;SDS011;16120;48.608;9.092;2023-04-26T16:47:24;79.50;;;8.20;;
29026;SDS011;16120;48.608;9.092;2023-04-26T16:51:19;91.33;;;20.53;;
29026;SDS011;16120;48.608;9.092;2023-04-26T16:55:16;93.17;;;23.10;;
29026;SDS011;16120;48.608;9.092;2023-04-26T16:59:11;77.77;;;6.60;;
29026;SDS011;16120;48.608;9.092;2023-04-26T17:03:06;80.20;;;8.33;;
29026;SDS011;16120;48.608;9.092;2023-04-26T17:07:01;80.00;;;7.63;;
29026;SDS011;16120;48.608;9.092;2023-04-26T17:10:58;90.70;;;7.97;;
29026;SDS011;16120;48.608;9.092;2023-04-26T17:14:53;79.80;;;7.20;;
29026;SDS011;16120;48.608;9.092;2023-04-26T17:18:48;78.50;;;6.40;;
29026;SDS011;16120;48.608;9.092;2023-04-26T17:22:43;80.30;;;6.10;;
29026;SDS011;16120;48.608;9.092;2023-04-26T17:26:40;79.40;;;6.60;;
29026;SDS011;16120;48.608;9.092;2023-04-26T17:30:35;78.43;;;6.33;;
29026;SDS011;16120;48.608;9.092;2023-04-26T17:34:30;76.77;;;6.53;;
29026;SDS011;16120;48.608;9.092;2023-04-26T17:38:25;79.70;;;6.10;;
29026;SDS011;16120;48.608;9.092;2023-04-26T17:42:22;77.77;;;7.10;;
29026;SDS011;16120;48.608;9.092;2023-04-26T17:46:17;79.90;;;6.70;;
29026;SDS011;16120;48.608;9.092;2023-04-26T17:50:12;78.90;;;6.30;;
29026;SDS011;16120;48.608;9.092;2023-04-26T17:54:08;78.00;;;6.27;;
29026;SDS011;16120;48.608;9.092;2023-04-26T17:58:04;77.17;;;6.47;;
29026;SDS011;16120;48.608;9.092;2023-04-26T18:01:59;80.23;;;6.40;;
29026;SDS011;16120;48.608;9.092;2023-04-26T18:05:54;81.60;;;6.47;;
29026;SDS011;16120;48.608;9.092;2023-04-26T18:09:50;78.97;;;8.33;;
29026;SDS011;16120;48.608;9.092;2023-04-26T18:13:46;81.47;;;6.90;;
29026;SDS011;16120;48.608;9.092;2023-04-26T18:17:41;77.87;;;6.40;;
29026;SDS011;16120;48.608;9.092;2023-04-26T18:21:37;79.77;;;6.50;;
29026;SDS011;16120;48.608;9.092;2023-04-26T18:25:32;81.40;;;6.17;;
29026;SDS011;16120;48.608;9.092;2023-04-26T18:29:28;79.17;;;6.10;;
29026;SDS011;16120;48.608;9.092;2023-04-26T18:33:24;79.33;;;6.30;;
29026;SDS011;16120;48.608;9.092;2023-04-26T18:37:19;77.77;;;6.43;;
29026;SDS011;16120;48.608;9.092;2023-04-26T18:41:14;76.40;;;6.00;;
29026;SDS011;16120;48.608;9.092;2023-04-26T18:45:11;77.30;;;6.10;;
29026;SDS011;16120;48.608;9.092;2023-04-26T18:49:07;77.97;;;7.10;;
29026;SDS011;16120;48.608;9.092;2023-04-26T18:53:02;78.53;;;7.30;;
29026;SDS011;16120;48.608;9.092;2023-04-26T18:56:57;80.47;;;7.43;;
29026;SDS011;16120;48.608;9.092;2023-04-26T19:00:54;77.73;;;6.07;;
29026;SDS011;16120;48.608;9.092;2023-04-26T19:04:49;80.73;;;6.03;;
29026;SDS011;16120;48.608;9.092;2023-04-26T19:08:44;77.50;;;6.03;;
29026;SDS011;16120;48.608;9.092;2023-04-26T19:12:39;80.70;;;5.83;;
29026;SDS011;16120;48.608;9.092;2023-04-26T19:16:36;79.13;;;5.80;;
29026;SDS011;16120;48.608;9.092;2023-04-26T19:20:31;76.57;;;5.70;;
29026;SDS011;16120;48.608;9.092;2023-04-26T19:24:26;79.33;;;5.63;;
29026;SDS011;16120;48.608;9.092;2023-04-26T19:28:21;79.07;;;5.10;;
29026;SDS011;16120;48.608;9.092;2023-04-26T19:32:18;79.00;;;5.55;;
29026;SDS011;16120;48.608;9.092;2023-04-26T19:36:13;93.50;;;5.63;;
29026;SDS011;16120;48.608;9.092;2023-04-26T19:40:08;78.03;;;5.03;;
29026;SDS011;16120;48.608;9.092;2023-04-26T19:44:04;76.90;;;4.90;;
29026;SDS011;16120;48.608;9.092;2023-04-26T19:48:00;76.13;;;5.23;;
29026;SDS011;16120;48.608;9.092;2023-04-26T19:51:55;76.57;;;4.87;;
29026;SDS011;16120;48.608;9.092;2023-04-26T19:55:50;78.60;;;5.50;;
29026;SDS011;16120;48.608;9.092;2023-04-26T19:59:46;82.63;;;4.87;;
29026;SDS011;16120;48.608;9.092;2023-04-26T20:03:42;75.80;;;4.80;;
29026;SDS011;16120;48.608;9.092;2023-04-26T20:07:37;80.77;;;5.57;;
29026;SDS011;16120;48.608;9.092;2023-04-26T20:11:33;77.43;;;5.00;;
29026;SDS011;16120;48.608;9.092;2023-04-26T20:15:28;79.03;;;4.97;;
29026;SDS011;16120;48.608;9.092;2023-04-26T20:19:24;77.60;;;4.70;;
29026;SDS011;16120;48.608;9.092;2023-04-26T20:23:19;79.10;;;4.30;;
29026;SDS011;16120;48.608;9.092;2023-04-26T20:27:15;77.93;;;4.67;;
29026;SDS011;16120;48.608;9.092;2023-04-26T20:31:10;77.20;;;4.40;;
29026;SDS011;16120;48.608;9.092;2023-04-26T20:35:07;77.10;;;4.87;;
29026;SDS011;16120;48.608;9.092;2023-04-26T20:39:02;78.37;;;5.40;;
29026;SDS011;16120;48.608;9.092;2023-04-26T20:42:58;77.87;;;4.77;;
29026;SDS011;16120;48.608;9.092;2023-04-26T20:46:53;77.97;;;5.50;;
29026;SDS011;16120;48.608;9.092;2023-04-26T20:50:51;78.10;;;4.77;;
29026;SDS011;16120;48.608;9.092;2023-04-26T20:54:47;78.77;;;5.17;;
29026;SDS011;16120;48.608;9.092;2023-04-26T20:58:42;76.40;;;4.83;;
29026;SDS011;16120;48.608;9.092;2023-04-26T21:02:37;82.50;;;5.43;;
29026;SDS011;16120;48.608;9.092;2023-04-26T21:06:34;77.63;;;5.37;;
29026;SDS011;16120;48.608;9.092;2023-04-26T21:10:29;76.87;;;4.97;;
29026;SDS011;16120;48.608;9.092;2023-04-26T21:14:24;77.60;;;5.23;;
29026;SDS011;16120;48.608;9.092;2023-04-26T21:18:19;77.60;;;4.97;;
29026;SDS011;16120;48.608;9.092;2023-04-26T21:22:16;77.50;;;5.07;;
29026;SDS011;16120;48.608;9.092;2023-04-26T21:26:11;79.90;;;5.43;;
29026;SDS011;16120;48.608;9.092;2023-04-26T21:30:07;79.87;;;6.00;;
29026;SDS011;16120;48.608;9.092;2023-04-26T21:34:02;77.87;;;5.10;;
29026;SDS011;16120;48.608;9.092;2023-04-26T21:37:58;76.80;;;5.17;;
29026;SDS011;16120;48.608;9.092;2023-04-26T21:41:54;77.13;;;5.30;;
29026;SDS011;16120;48.608;9.092;2023-04-26T21:45:49;79.55;;;5.80;;
29026;SDS011;16120;48.608;9.092;2023-04-26T21:49:44;77.80;;;5.53;;
29026;SDS011;16120;48.608;9.092;2023-04-26T21:53:41;79.37;;;6.00;;
29026;SDS011;16120;48.608;9.092;2023-04-26T21:57:36;80.63;;;5.53;;
29026;SDS011;16120;48.608;9.092;2023-04-26T22:01:31;79.30;;;5.47;;
29026;SDS011;16120;48.608;9.092;2023-04-26T22:05:26;81.77;;;5.27;;
29026;SDS011;16120;48.608;9.092;2023-04-26T22:09:23;76.83;;;5.13;;
29026;SDS011;16120;48.608;9.092;2023-04-26T22:13:18;77.90;;;5.87;;
29026;SDS011;16120;48.608;9.092;2023-04-26T22:17:13;79.53;;;5.30;;
29026;SDS011;16120;48.608;9.092;2023-04-26T22:21:08;77.20;;;5.33;;
29026;SDS011;16120;48.608;9.092;2023-04-26T22:25:05;77.80;;;5.10;;
29026;SDS011;16120;48.608;9.092;2023-04-26T22:29:01;77.10;;;5.30;;
29026;SDS011;16120;48.608;9.092;2023-04-26T22:32:56;78.77;;;5.50;;
29026;SDS011;16120;48.608;9.092;2023-04-26T22:36:51;77.00;;;5.27;;
29026;SDS011;16120;48.608;9.092;2023-04-26T22:40:48;80.47;;;5.57;;
29026;SDS011;16120;48.608;9.092;2023-04-26T22:44:43;79.83;;;5.53;;
29026;SDS011;16120;48.608;9.092;2023-04-26T22:48:38;78.80;;;5.37;;
29026;SDS011;16120;48.608;9.092;2023-04-26T22:52:33;75.67;;;4.87;;
29026;SDS011;16120;48.608;9.092;2023-04-26T22:56:30;77.97;;;5.23;;
29026;SDS011;16120;48.608;9.092;2023-04-26T23:00:25;81.60;;;5.30;;
29026;SDS011;16120;48.608;9.092;2023-04-26T23:04:21;78.33;;;5.20;;
29026;SDS011;16120;48.608;9.092;2023-04-26T23:08:16;77.20;;;5.87;;
29026;SDS011;16120;48.608;9.092;2023-04-26T23:12:16;78.50;;;5.60;;
29026;SDS011;16120;48.608;9.092;2023-04-26T23:16:11;80.60;;;5.70;;
29026;SDS011;16120;48.608;9.092;2023-04-26T23:20:07;77.63;;;5.70;;
29026;SDS011;16120;48.608;9.092;2023-04-26T23:24:02;77.77;;;5.73;;
29026;SDS011;16120;48.608;9.092;2023-04-26T23:27:59;78.90;;;5.60;;
29026;SDS011;16120;48.608;9.092;2023-04-26T23:31:54;79.50;;;5.63;;
29026;SDS011;16120;48.608;9.092;2023-04-26T23:35:49;78.80;;;5.57;;